createdAt,value
2023-02-06T00:00:49.177Z,4.50
2023-02-06T00:03:17.418Z,4.30
2023-02-06T00:05:44.040Z,4.30
2023-02-06T00:08:10.742Z,4.30
2023-02-06T00:10:37.534Z,4.30
2023-02-06T00:13:04.264Z,4.30
2023-02-06T00:15:31.329Z,4.30
2023-02-06T00:17:57.940Z,4.30
2023-02-06T00:20:24.521Z,4.40
2023-02-06T00:22:51.108Z,4.30
2023-02-06T00:25:17.706Z,4.30
2023-02-06T00:27:44.680Z,4.30
2023-02-06T00:30:11.897Z,4.40
2023-02-06T00:32:38.528Z,4.40
2023-02-06T00:35:05.605Z,4.40
2023-02-06T00:37:32.157Z,4.30
2023-02-06T00:39:58.732Z,4.20
2023-02-06T00:42:25.454Z,4.20
2023-02-06T00:44:52.012Z,4.20
2023-02-06T00:47:18.604Z,4.30
2023-02-06T00:49:45.185Z,4.40
2023-02-06T00:52:11.824Z,4.40
2023-02-06T00:54:38.431Z,4.40
2023-02-06T00:57:05.058Z,4.40
2023-02-06T00:59:31.641Z,4.30
2023-02-06T01:01:58.294Z,4.30
2023-02-06T01:04:25.442Z,4.30
2023-02-06T01:06:52.495Z,4.30
2023-02-06T01:09:19.322Z,4.30
2023-02-06T01:11:45.936Z,4.30
2023-02-06T01:14:12.674Z,4.30
2023-02-06T01:16:39.794Z,4.30
2023-02-06T01:19:06.391Z,4.30
2023-02-06T01:21:33.082Z,4.40
2023-02-06T01:24:00.238Z,4.40
2023-02-06T01:26:27.148Z,4.40
2023-02-06T01:28:54.948Z,4.40
2023-02-06T01:31:23.106Z,4.40
2023-02-06T01:33:51.468Z,4.40
2023-02-06T01:36:20.428Z,4.40
2023-02-06T01:38:48.555Z,4.50
2023-02-06T01:41:16.537Z,4.50
2023-02-06T01:43:46.685Z,4.50
2023-02-06T01:46:13.319Z,4.50
2023-02-06T01:48:43.230Z,4.50
2023-02-06T01:51:17.813Z,4.40
2023-02-06T01:53:48.512Z,4.30
2023-02-06T01:56:19.490Z,4.20
2023-02-06T01:58:51.535Z,4.20
2023-02-06T02:01:20.013Z,4.20
2023-02-06T02:03:50.082Z,4.30
2023-02-06T02:06:19.369Z,4.20
2023-02-06T02:08:47.683Z,4.10
2023-02-06T02:11:20.093Z,4.20
2023-02-06T02:13:47.529Z,4.20
2023-02-06T02:16:48.054Z,4.10
2023-02-06T02:19:33.400Z,4.10
2023-02-06T02:22:15.159Z,4.10
2023-02-06T02:25:04.806Z,4.00
2023-02-06T02:27:49.553Z,4.00
2023-02-06T02:30:22.398Z,4.00
2023-02-06T02:33:13.816Z,4.00
2023-02-06T02:35:46.249Z,4.10
2023-02-06T02:38:33.074Z,4.10
2023-02-06T02:41:05.727Z,4.20
2023-02-06T02:43:56.696Z,4.20
2023-02-06T02:46:40.536Z,4.20
2023-02-06T02:49:21.869Z,4.30
2023-02-06T02:51:50.627Z,4.30
2023-02-06T02:54:17.740Z,4.30
2023-02-06T02:56:44.477Z,4.30
2023-02-06T02:59:19.097Z,4.30
2023-02-06T03:01:53.597Z,4.30
2023-02-06T03:04:50.582Z,4.40
2023-02-06T03:07:49.332Z,4.40
2023-02-06T03:10:22.189Z,4.40
2023-02-06T03:13:21.186Z,4.40
2023-02-06T03:15:58.393Z,4.40
2023-02-06T03:18:36.479Z,4.40
2023-02-06T03:21:06.674Z,4.40
2023-02-06T03:23:38.225Z,4.30
2023-02-06T03:26:07.709Z,4.30
2023-02-06T03:28:38.285Z,4.30
2023-02-06T03:31:09.034Z,4.40
2023-02-06T03:33:40.189Z,4.30
2023-02-06T03:36:09.919Z,4.30
2023-02-06T03:38:37.117Z,4.20
2023-02-06T03:41:04.614Z,4.30
2023-02-06T03:43:31.751Z,4.30
2023-02-06T03:46:04.080Z,4.40
2023-02-06T03:48:38.288Z,4.40
2023-02-06T03:51:17.427Z,4.40
2023-02-06T03:53:47.239Z,4.40
2023-02-06T03:56:23.688Z,4.50
2023-02-06T03:58:50.284Z,4.50
2023-02-06T04:01:17.332Z,4.50
2023-02-06T04:03:44.020Z,4.60
2023-02-06T04:06:10.856Z,4.60
2023-02-06T04:08:37.663Z,4.60
2023-02-06T04:11:04.456Z,4.60
2023-02-06T04:13:31.030Z,4.50
2023-02-06T04:15:57.611Z,4.40
2023-02-06T04:18:24.196Z,4.40
2023-02-06T04:20:52.408Z,4.50
2023-02-06T04:23:20.044Z,4.40
2023-02-06T04:25:47.549Z,4.30
2023-02-06T04:28:14.451Z,4.30
2023-02-06T04:30:41.643Z,4.30
2023-02-06T04:33:08.452Z,4.20
2023-02-06T04:35:35.305Z,4.20
2023-02-06T04:38:02.104Z,4.20
2023-02-06T04:40:28.748Z,4.30
2023-02-06T04:42:55.340Z,4.10
2023-02-06T04:45:21.955Z,4.00
2023-02-06T04:47:50.107Z,4.10
2023-02-06T04:50:17.778Z,4.20
2023-02-06T04:52:44.491Z,4.20
2023-02-06T04:55:11.196Z,4.10
2023-02-06T04:57:38.412Z,4.00
2023-02-06T05:00:06.942Z,4.00
2023-02-06T05:02:39.384Z,3.90
2023-02-06T05:05:08.101Z,3.90
2023-02-06T05:07:35.439Z,4.00
2023-02-06T05:10:02.266Z,3.90
2023-02-06T05:12:29.083Z,3.80
2023-02-06T05:14:56.135Z,3.90
2023-02-06T05:17:23.364Z,4.00
2023-02-06T05:19:49.942Z,4.00
2023-02-06T05:22:16.577Z,4.00
2023-02-06T05:24:43.145Z,4.00
2023-02-06T05:27:09.853Z,4.00
2023-02-06T05:29:36.419Z,4.00
2023-02-06T05:32:03.716Z,4.00
2023-02-06T05:34:30.317Z,4.10
2023-02-06T05:36:56.947Z,4.00
2023-02-06T05:39:23.583Z,4.10
2023-02-06T05:41:50.199Z,4.00
2023-02-06T05:44:16.981Z,4.00
2023-02-06T05:46:44.286Z,4.00
2023-02-06T05:49:11.233Z,4.00
2023-02-06T05:51:38.360Z,4.00
2023-02-06T05:54:05.206Z,4.00
2023-02-06T05:56:31.871Z,4.00
2023-02-06T05:58:58.709Z,3.90
2023-02-06T06:01:25.836Z,3.90
2023-02-06T06:03:52.489Z,4.00
2023-02-06T06:06:19.401Z,3.90
2023-02-06T06:08:46.047Z,4.00
2023-02-06T06:11:12.757Z,3.90
2023-02-06T06:13:39.480Z,4.00
2023-02-06T06:16:06.242Z,3.90
2023-02-06T06:18:32.938Z,3.90
2023-02-06T06:20:59.498Z,3.90
2023-02-06T06:23:26.117Z,3.80
2023-02-06T06:25:53.878Z,3.80
2023-02-06T06:28:20.814Z,3.90
2023-02-06T06:30:47.433Z,3.70
2023-02-06T06:33:16.337Z,3.70
2023-02-06T06:35:42.980Z,3.70
2023-02-06T06:38:09.561Z,3.70
2023-02-06T06:40:36.786Z,3.60
2023-02-06T06:43:03.693Z,3.60
2023-02-06T06:45:30.425Z,3.70
2023-02-06T06:47:57.165Z,3.70
2023-02-06T06:50:23.842Z,3.70
2023-02-06T06:52:50.476Z,3.60
2023-02-06T06:55:19.408Z,3.60
2023-02-06T06:57:46.681Z,3.60
2023-02-06T07:00:14.431Z,3.50
2023-02-06T07:02:42.986Z,3.50
2023-02-06T07:05:09.878Z,3.50
2023-02-06T07:07:37.311Z,3.60
2023-02-06T07:10:04.056Z,3.60
2023-02-06T07:12:30.662Z,3.60
2023-02-06T07:14:57.236Z,3.60
2023-02-06T07:17:23.830Z,3.60
2023-02-06T07:19:52.428Z,3.60
2023-02-06T07:22:20.042Z,3.60
2023-02-06T07:24:46.667Z,3.60
2023-02-06T07:27:13.530Z,3.60
2023-02-06T07:29:40.101Z,3.60
2023-02-06T07:32:06.872Z,3.50
2023-02-06T07:34:34.693Z,3.60
2023-02-06T07:37:01.667Z,3.50
2023-02-06T07:39:28.458Z,3.40
2023-02-06T07:41:55.078Z,3.30
2023-02-06T07:44:21.729Z,3.40
2023-02-06T07:46:48.376Z,3.40
2023-02-06T07:49:15.959Z,3.40
2023-02-06T07:51:43.588Z,3.40
2023-02-06T07:54:11.702Z,3.40
2023-02-06T07:56:39.102Z,3.30
2023-02-06T07:59:06.137Z,3.40
2023-02-06T08:01:32.805Z,3.40
2023-02-06T08:03:59.435Z,3.50
2023-02-06T08:06:26.603Z,3.50
2023-02-06T08:08:56.064Z,3.50
2023-02-06T08:11:25.174Z,3.40
2023-02-06T08:13:51.931Z,3.60
2023-02-06T08:16:20.889Z,3.60
2023-02-06T08:18:47.627Z,3.60
2023-02-06T08:21:20.623Z,3.70
2023-02-06T08:23:48.025Z,3.70
2023-02-06T08:26:17.476Z,3.60
2023-02-06T08:28:46.218Z,3.60
2023-02-06T08:31:16.419Z,3.60
2023-02-06T08:33:43.515Z,3.60
2023-02-06T08:36:11.558Z,3.50
2023-02-06T08:38:38.866Z,3.60
2023-02-06T08:41:13.877Z,3.70
2023-02-06T08:43:40.459Z,3.70
2023-02-06T08:46:07.048Z,3.70
2023-02-06T08:48:33.723Z,3.70
2023-02-06T08:51:08.401Z,3.70
2023-02-06T08:53:35.572Z,3.70
2023-02-06T08:56:05.315Z,3.70
2023-02-06T08:58:32.219Z,3.80
2023-02-06T09:00:59.942Z,3.70
2023-02-06T09:03:27.151Z,3.70
2023-02-06T09:06:09.575Z,3.70
2023-02-06T09:08:38.092Z,3.70
2023-02-06T09:11:13.498Z,3.70
2023-02-06T09:13:40.082Z,3.70
2023-02-06T09:16:07.327Z,3.70
2023-02-06T09:18:34.977Z,3.70
2023-02-06T09:21:16.482Z,3.70
2023-02-06T09:23:45.962Z,3.70
2023-02-06T09:26:14.704Z,3.50
2023-02-06T09:28:41.266Z,3.50
2023-02-06T09:31:09.237Z,3.50
2023-02-06T09:33:38.006Z,3.50
2023-02-06T09:36:07.244Z,3.50
2023-02-06T09:38:34.893Z,3.40
2023-02-06T09:41:06.101Z,3.50
2023-02-06T09:43:34.534Z,3.40
2023-02-06T09:46:04.158Z,3.50
2023-02-06T09:48:34.742Z,3.50
2023-02-06T09:51:24.057Z,3.40
2023-02-06T09:54:13.118Z,3.40
2023-02-06T09:57:01.565Z,3.50
2023-02-06T09:59:54.374Z,3.50
2023-02-06T10:02:23.819Z,3.50
2023-02-06T10:05:19.822Z,3.50
2023-02-06T10:08:13.780Z,3.50
2023-02-06T10:10:50.481Z,3.60
2023-02-06T10:13:31.014Z,3.60
2023-02-06T10:16:06.172Z,3.60
2023-02-06T10:18:46.355Z,3.60
2023-02-06T10:21:41.461Z,3.60
2023-02-06T10:24:49.455Z,3.70
2023-02-06T10:27:17.261Z,3.70
2023-02-06T10:29:46.601Z,3.70
2023-02-06T10:32:38.033Z,3.60
2023-02-06T10:35:24.057Z,3.70
2023-02-06T10:38:04.850Z,3.70
2023-02-06T10:40:53.196Z,3.60
2023-02-06T10:43:47.979Z,3.70
2023-02-06T10:46:37.552Z,3.70
2023-02-06T10:49:35.241Z,3.70
2023-02-06T10:52:16.522Z,3.60
2023-02-06T10:55:07.254Z,3.70
2023-02-06T10:57:34.282Z,3.70
2023-02-06T11:00:02.701Z,3.80
2023-02-06T11:02:39.062Z,3.80
2023-02-06T11:05:10.524Z,3.90
2023-02-06T11:07:43.625Z,3.90
2023-02-06T11:10:18.841Z,3.90
2023-02-06T11:12:54.137Z,3.90
2023-02-06T11:15:44.926Z,3.90
2023-02-06T11:18:15.890Z,3.90
2023-02-06T11:20:44.394Z,3.80
2023-02-06T11:23:20.001Z,3.80
2023-02-06T11:26:13.889Z,3.80
2023-02-06T11:28:57.177Z,3.70
2023-02-06T11:31:43.865Z,3.70
2023-02-06T11:34:21.336Z,3.70
2023-02-06T11:36:52.842Z,3.80
2023-02-06T11:39:33.184Z,3.80
2023-02-06T11:42:06.972Z,3.80
2023-02-06T11:44:39.406Z,3.80
2023-02-06T11:47:24.822Z,3.80
2023-02-06T11:49:52.561Z,3.80
2023-02-06T11:52:31.680Z,3.80
2023-02-06T11:55:02.269Z,3.80
2023-02-06T11:57:33.981Z,3.80
2023-02-06T12:00:18.412Z,3.80
2023-02-06T12:02:52.485Z,3.90
2023-02-06T12:05:21.624Z,3.90
2023-02-06T12:08:02.447Z,4.00
2023-02-06T12:10:34.094Z,4.00
2023-02-06T12:13:15.688Z,4.10
2023-02-06T12:15:50.176Z,4.10
2023-02-06T12:18:21.970Z,4.00
2023-02-06T12:20:53.163Z,4.00
2023-02-06T12:23:28.748Z,4.10
2023-02-06T12:26:02.366Z,4.10
2023-02-06T12:28:48.019Z,4.10
2023-02-06T12:31:39.673Z,4.10
2023-02-06T12:34:31.639Z,4.00
2023-02-06T12:37:21.384Z,4.00
2023-02-06T12:39:51.098Z,4.00
2023-02-06T12:42:41.428Z,4.00
2023-02-06T12:45:31.575Z,4.10
2023-02-06T12:48:12.297Z,4.10
2023-02-06T12:50:42.054Z,4.10
2023-02-06T12:53:58.647Z,4.20
2023-02-06T12:56:33.461Z,4.10
2023-02-06T12:59:41.587Z,4.10
2023-02-06T13:02:28.018Z,4.20
2023-02-06T13:04:55.689Z,4.20
2023-02-06T13:07:24.701Z,4.30
2023-02-06T13:09:59.274Z,4.30
2023-02-06T13:12:31.036Z,4.20
2023-02-06T13:15:00.382Z,4.30
2023-02-06T13:17:47.211Z,4.40
2023-02-06T13:20:16.695Z,4.40
2023-02-06T13:22:51.111Z,4.50
2023-02-06T13:25:29.566Z,4.50
2023-02-06T13:27:57.401Z,4.60
2023-02-06T13:30:23.996Z,4.60
2023-02-06T13:32:51.124Z,4.70
2023-02-06T13:35:22.519Z,4.70
2023-02-06T13:37:51.344Z,4.70
2023-02-06T13:40:24.111Z,4.80
2023-02-06T13:42:59.812Z,4.80
2023-02-06T13:45:36.578Z,4.80
2023-02-06T13:48:27.913Z,4.80
2023-02-06T13:51:19.069Z,4.70
2023-02-06T13:54:16.188Z,4.70
2023-02-06T13:57:20.593Z,4.70
2023-02-06T14:00:02.292Z,4.60
2023-02-06T14:02:37.210Z,4.70
2023-02-06T14:05:09.364Z,4.70
2023-02-06T14:08:17.371Z,4.70
2023-02-06T14:11:33.015Z,4.70
2023-02-06T14:14:28.269Z,4.70
2023-02-06T14:16:57.834Z,4.70
2023-02-06T14:19:46.630Z,4.80
2023-02-06T14:22:31.876Z,4.70
2023-02-06T14:25:37.724Z,4.70
2023-02-06T14:28:41.855Z,4.60
2023-02-06T14:31:38.307Z,4.60
2023-02-06T14:34:49.728Z,4.60
2023-02-06T14:37:28.362Z,4.60
2023-02-06T14:40:04.430Z,4.70
2023-02-06T14:42:32.533Z,4.60
2023-02-06T14:45:03.069Z,4.70
2023-02-06T14:47:33.927Z,4.70
2023-02-06T14:50:01.608Z,4.70
2023-02-06T14:52:31.468Z,4.60
2023-02-06T14:54:58.094Z,4.60
2023-02-06T14:57:28.077Z,4.60
2023-02-06T15:00:05.545Z,4.70
2023-02-06T15:02:36.003Z,4.70
2023-02-06T15:05:04.903Z,4.70
2023-02-06T15:07:35.289Z,4.60
2023-02-06T15:10:05.559Z,4.60
2023-02-06T15:12:33.347Z,4.70
2023-02-06T15:15:14.106Z,4.70
2023-02-06T15:17:40.977Z,4.70
2023-02-06T15:20:26.572Z,4.70
2023-02-06T15:23:02.144Z,4.60
2023-02-06T15:26:17.050Z,4.60
2023-02-06T15:28:44.431Z,4.60
2023-02-06T15:31:20.794Z,4.60
2023-02-06T15:33:51.132Z,4.60
2023-02-06T15:36:36.960Z,4.60
2023-02-06T15:39:07.534Z,4.50
2023-02-06T15:41:35.130Z,4.60
2023-02-06T15:44:09.470Z,4.60
2023-02-06T15:46:37.883Z,4.70
2023-02-06T15:49:06.739Z,4.70
2023-02-06T15:51:49.004Z,4.70
2023-02-06T15:54:15.564Z,4.70
2023-02-06T15:56:43.400Z,4.80
2023-02-06T15:59:22.952Z,4.80
2023-02-06T16:01:50.883Z,4.70
2023-02-06T16:04:24.198Z,4.70
2023-02-06T16:07:05.148Z,4.70
2023-02-06T16:09:41.153Z,4.70
2023-02-06T16:12:08.891Z,4.60
2023-02-06T16:14:37.145Z,4.60
2023-02-06T16:17:12.669Z,4.60
2023-02-06T16:19:53.296Z,4.70
2023-02-06T16:22:28.521Z,4.60
2023-02-06T16:25:20.839Z,4.50
2023-02-06T16:27:48.316Z,4.60
2023-02-06T16:30:34.370Z,4.50
2023-02-06T16:33:16.407Z,4.60
2023-02-06T16:35:43.228Z,4.50
2023-02-06T16:38:10.788Z,4.50
2023-02-06T16:40:38.198Z,4.40
2023-02-06T16:43:10.020Z,4.40
2023-02-06T16:45:36.759Z,4.40
2023-02-06T16:48:03.715Z,4.30
2023-02-06T16:50:30.317Z,4.20
2023-02-06T16:53:00.396Z,4.20
2023-02-06T16:55:28.767Z,4.10
2023-02-06T16:57:59.180Z,4.20
2023-02-06T17:00:31.126Z,4.20
2023-02-06T17:02:58.455Z,4.00
2023-02-06T17:05:26.839Z,4.00
2023-02-06T17:07:54.804Z,4.10
2023-02-06T17:10:24.752Z,4.10
2023-02-06T17:12:52.290Z,4.10
2023-02-06T17:15:19.390Z,4.10
2023-02-06T17:17:46.434Z,4.10
2023-02-06T17:20:30.713Z,4.10
2023-02-06T17:22:57.395Z,4.10
2023-02-06T17:25:24.000Z,4.10
2023-02-06T17:27:50.628Z,4.00
2023-02-06T17:30:19.346Z,4.10
2023-02-06T17:32:45.979Z,4.10
2023-02-06T17:35:12.683Z,4.00
2023-02-06T17:37:39.563Z,4.00
2023-02-06T17:40:06.902Z,4.00
2023-02-06T17:42:33.705Z,4.00
2023-02-06T17:45:00.355Z,4.10
2023-02-06T17:47:27.103Z,4.10
2023-02-06T17:49:53.889Z,4.10
2023-02-06T17:52:20.657Z,4.10
2023-02-06T17:54:47.245Z,3.90
2023-02-06T17:57:13.818Z,3.80
2023-02-06T17:59:40.421Z,3.90
2023-02-06T18:02:06.996Z,4.00
2023-02-06T18:04:33.786Z,4.00
2023-02-06T18:07:00.344Z,3.90
2023-02-06T18:09:26.909Z,3.90
2023-02-06T18:11:53.524Z,3.90
2023-02-06T18:14:21.020Z,3.90
2023-02-06T18:16:47.736Z,3.90
2023-02-06T18:19:15.583Z,3.90
2023-02-06T18:21:42.227Z,3.90
2023-02-06T18:24:08.975Z,3.90
2023-02-06T18:26:37.894Z,3.80
2023-02-06T18:29:05.571Z,3.90
2023-02-06T18:31:35.091Z,3.80
2023-02-06T18:34:07.869Z,3.80
2023-02-06T18:36:35.623Z,3.70
2023-02-06T18:39:02.254Z,3.80
2023-02-06T18:41:47.527Z,3.80
2023-02-06T18:44:14.219Z,3.80
2023-02-06T18:46:40.942Z,3.70
2023-02-06T18:49:07.617Z,3.70
2023-02-06T18:51:34.657Z,3.70
2023-02-06T18:54:01.774Z,3.80
2023-02-06T18:56:28.414Z,3.80
2023-02-06T18:58:55.661Z,3.70
2023-02-06T19:01:24.225Z,3.70
2023-02-06T19:03:52.537Z,3.60
2023-02-06T19:06:32.195Z,3.60
2023-02-06T19:09:00.397Z,3.60
2023-02-06T19:11:27.486Z,3.50
2023-02-06T19:13:54.938Z,3.60
2023-02-06T19:16:21.694Z,3.60
2023-02-06T19:18:49.570Z,3.60
2023-02-06T19:21:19.042Z,3.50
2023-02-06T19:23:47.811Z,3.30
2023-02-06T19:26:16.615Z,3.20
2023-02-06T19:28:43.757Z,3.20
2023-02-06T19:31:12.435Z,3.10
2023-02-06T19:33:41.048Z,3.10
2023-02-06T19:36:09.720Z,2.90
2023-02-06T19:38:36.461Z,2.90
2023-02-06T19:41:14.470Z,2.90
2023-02-06T19:43:41.490Z,2.80
2023-02-06T19:46:11.848Z,2.80
2023-02-06T19:48:41.126Z,2.80
2023-02-06T19:51:13.244Z,2.90
2023-02-06T19:53:45.378Z,2.70
2023-02-06T19:56:28.056Z,2.60
2023-02-06T19:58:56.398Z,2.60
2023-02-06T20:01:23.835Z,2.60
2023-02-06T20:03:50.961Z,2.60
2023-02-06T20:06:19.304Z,2.50
2023-02-06T20:08:46.674Z,2.60
2023-02-06T20:11:16.219Z,2.50
2023-02-06T20:13:43.573Z,2.60
2023-02-06T20:16:23.375Z,2.60
2023-02-06T20:18:50.513Z,2.60
2023-02-06T20:21:33.810Z,2.50
2023-02-06T20:24:03.872Z,2.50
2023-02-06T20:26:34.421Z,2.40
2023-02-06T20:29:01.263Z,2.40
2023-02-06T20:31:28.207Z,2.40
2023-02-06T20:33:55.712Z,2.40
2023-02-06T20:36:25.145Z,2.40
2023-02-06T20:38:57.686Z,2.40
2023-02-06T20:41:28.585Z,2.40
2023-02-06T20:44:00.344Z,2.30
2023-02-06T20:46:29.637Z,2.30
2023-02-06T20:49:02.197Z,2.40
2023-02-06T20:51:29.731Z,2.40
2023-02-06T20:53:56.731Z,2.30
2023-02-06T20:56:23.834Z,2.30
2023-02-06T20:58:51.170Z,2.30
2023-02-06T21:01:24.059Z,2.30
2023-02-06T21:03:55.239Z,2.20
2023-02-06T21:06:22.508Z,2.30
2023-02-06T21:08:50.167Z,2.30
2023-02-06T21:11:17.349Z,2.30
2023-02-06T21:13:43.996Z,2.40
2023-02-06T21:16:13.561Z,2.30
2023-02-06T21:18:42.357Z,2.20
2023-02-06T21:21:12.619Z,2.20
2023-02-06T21:23:40.999Z,2.10
2023-02-06T21:26:09.083Z,2.10
2023-02-06T21:28:36.712Z,2.10
2023-02-06T21:31:10.311Z,2.00
2023-02-06T21:33:37.617Z,2.00
2023-02-06T21:36:06.836Z,1.90
2023-02-06T21:38:36.503Z,2.00
2023-02-06T21:41:05.914Z,1.90
2023-02-06T21:43:33.427Z,1.90
2023-02-06T21:46:00.254Z,1.80
2023-02-06T21:48:27.710Z,1.90
2023-02-06T21:50:54.351Z,1.90
2023-02-06T21:53:21.476Z,1.70
2023-02-06T21:55:48.390Z,1.70
2023-02-06T21:58:15.570Z,1.70
2023-02-06T22:00:44.154Z,1.70
2023-02-06T22:03:12.258Z,1.80
2023-02-06T22:05:39.548Z,1.90
2023-02-06T22:08:06.366Z,1.80
2023-02-06T22:10:36.100Z,1.80
2023-02-06T22:13:04.099Z,1.80
2023-02-06T22:15:30.773Z,1.80
2023-02-06T22:17:57.380Z,1.80
2023-02-06T22:20:24.243Z,1.70
2023-02-06T22:22:51.159Z,1.70
2023-02-06T22:25:17.825Z,1.70
2023-02-06T22:27:44.410Z,1.60
2023-02-06T22:30:11.689Z,1.60
2023-02-06T22:32:39.606Z,1.60
2023-02-06T22:35:06.849Z,1.60
2023-02-06T22:37:34.479Z,1.50
2023-02-06T22:40:01.094Z,1.50
2023-02-06T22:42:27.702Z,1.50
2023-02-06T22:44:54.271Z,1.50
2023-02-06T22:47:20.854Z,1.50
2023-02-06T22:49:50.628Z,1.50
2023-02-06T22:52:36.449Z,1.50
2023-02-06T22:55:05.623Z,1.60
2023-02-06T22:57:35.602Z,1.70
2023-02-06T23:00:03.620Z,1.50
2023-02-06T23:02:30.479Z,1.50
2023-02-06T23:04:57.075Z,1.50
2023-02-06T23:07:23.711Z,1.30
2023-02-06T23:09:50.412Z,1.30
2023-02-06T23:12:17.039Z,1.40
2023-02-06T23:14:43.800Z,1.30
2023-02-06T23:17:10.752Z,1.30
2023-02-06T23:19:39.148Z,1.30
2023-02-06T23:22:06.292Z,1.30
2023-02-06T23:24:32.954Z,1.20
2023-02-06T23:26:59.558Z,1.20
2023-02-06T23:29:26.181Z,1.40
2023-02-06T23:31:53.084Z,1.50
2023-02-06T23:34:23.454Z,1.40
2023-02-06T23:36:52.018Z,1.50
2023-02-06T23:39:19.296Z,1.50
2023-02-06T23:41:46.146Z,1.50
2023-02-06T23:44:13.184Z,1.30
2023-02-06T23:46:40.734Z,1.40
2023-02-06T23:49:08.303Z,1.40
2023-02-06T23:51:36.460Z,1.30
2023-02-06T23:54:03.811Z,1.30
2023-02-06T23:56:31.380Z,1.20
2023-02-06T23:58:59.336Z,1.30
